createdAt,value
2022-08-02T00:06:50.621Z,57.69
2022-08-02T00:09:23.917Z,57.84
2022-08-02T00:12:53.417Z,57.62
2022-08-02T00:16:03.777Z,57.62
2022-08-02T00:18:37.772Z,57.67
2022-08-02T00:21:31.624Z,57.85
2022-08-02T00:24:27.903Z,58.02
2022-08-02T00:27:52.727Z,57.78
2022-08-02T00:30:31.536Z,57.90
2022-08-02T00:32:59.388Z,57.82
2022-08-02T00:35:34.346Z,57.97
2022-08-02T00:38:12.210Z,58.23
2022-08-02T00:41:11.672Z,58.51
2022-08-02T00:43:44.106Z,58.61
2022-08-02T00:46:21.085Z,58.76
2022-08-02T00:48:54.110Z,58.89
2022-08-02T01:17:37.714Z,59.71
2022-08-02T01:21:00.887Z,59.85
2022-08-02T01:24:13.336Z,59.91
2022-08-02T01:27:24.008Z,60.15
2022-08-02T01:29:56.625Z,60.08
2022-08-02T01:32:47.953Z,60.15
2022-08-02T01:35:58.789Z,60.11
2022-08-02T01:38:51.815Z,60.23
2022-08-02T01:42:20.387Z,60.19
2022-08-02T01:45:02.771Z,59.94
2022-08-02T01:47:56.398Z,59.93
2022-08-02T05:30:47.917Z,62.93
2022-08-02T05:33:37.660Z,62.84
2022-08-02T05:36:06.450Z,62.70
2022-08-02T05:38:36.831Z,62.74
2022-08-02T05:41:09.907Z,62.71
2022-08-02T05:43:38.934Z,62.89
2022-08-02T05:46:09.099Z,62.94
2022-08-02T05:49:01.239Z,62.74
2022-08-02T05:51:47.559Z,62.71
2022-08-02T05:54:39.362Z,62.62
2022-08-02T05:57:30.176Z,62.57
2022-08-02T06:00:21.568Z,62.49
2022-08-02T06:03:41.475Z,62.46
2022-08-02T06:06:16.621Z,62.58
2022-08-02T06:08:51.076Z,62.54
2022-08-02T06:11:22.303Z,62.57
2022-08-02T06:14:06.850Z,62.59
2022-08-02T06:16:37.598Z,62.51
2022-08-02T06:19:18.009Z,62.48
2022-08-02T06:22:35.466Z,62.54
2022-08-02T06:24:51.450Z,62.66
2022-08-02T06:27:23.090Z,62.58
2022-08-02T06:29:53.529Z,62.59
2022-08-02T06:32:24.273Z,62.64
2022-08-02T06:34:52.547Z,62.44
2022-08-02T06:37:30.860Z,62.55
2022-08-02T06:40:12.768Z,62.52
2022-08-02T06:43:04.410Z,62.42
2022-08-02T06:45:33.629Z,62.35
2022-08-02T06:48:02.709Z,62.41
2022-08-02T06:50:31.340Z,62.35
2022-08-02T06:53:00.250Z,62.10
2022-08-02T06:55:29.242Z,62.11
2022-08-02T06:58:22.344Z,61.98
2022-08-02T07:01:18.503Z,61.72
2022-08-02T07:03:46.390Z,61.93
2022-08-02T07:06:14.297Z,61.56
2022-08-02T07:08:50.921Z,61.53
2022-08-02T07:11:30.189Z,61.17
2022-08-02T07:13:59.807Z,61.04
2022-08-02T07:16:30.393Z,61.11
2022-08-02T07:18:59.916Z,61.01
2022-08-02T07:21:57.614Z,60.97
2022-08-02T07:25:01.313Z,60.78
2022-08-02T07:27:29.936Z,60.49
2022-08-02T07:29:59.558Z,60.31
2022-08-02T07:32:31.647Z,60.23
2022-08-02T07:35:02.678Z,59.98
2022-08-02T07:37:55.223Z,59.75
2022-08-02T07:40:49.355Z,59.50
2022-08-02T07:43:17.842Z,59.27
2022-08-02T07:45:55.605Z,59.10
2022-08-02T07:48:36.190Z,59.12
2022-08-02T07:51:16.909Z,58.63
2022-08-02T07:53:50.625Z,57.32
2022-08-02T07:56:25.605Z,57.16
2022-08-02T07:58:55.739Z,56.57
2022-08-02T08:01:23.616Z,56.40
2022-08-02T08:03:51.472Z,55.81
2022-08-02T08:06:19.620Z,54.79
2022-08-02T08:08:57.165Z,52.71
2022-08-02T08:11:27.029Z,53.00
2022-08-02T08:13:55.285Z,52.66
2022-08-02T08:16:23.154Z,51.34
2022-08-02T08:18:51.171Z,50.96
2022-08-02T08:21:19.131Z,51.01
2022-08-02T08:23:47.783Z,50.75
2022-08-02T08:26:17.801Z,50.52
2022-08-02T08:28:45.737Z,51.73
2022-08-02T08:31:14.231Z,51.40
2022-08-02T08:33:42.129Z,50.95
2022-08-02T08:36:11.772Z,50.25
2022-08-02T08:38:39.304Z,49.29
2022-08-02T08:41:08.245Z,48.73
2022-08-02T08:43:37.009Z,48.35
2022-08-02T08:46:05.403Z,47.45
2022-08-02T08:48:38.213Z,47.89
2022-08-02T08:51:16.061Z,46.73
2022-08-02T08:53:47.975Z,45.94
2022-08-02T08:56:17.906Z,45.89
2022-08-02T08:58:49.434Z,44.94
2022-08-02T09:01:17.188Z,44.30
2022-08-02T09:03:45.190Z,44.10
2022-08-02T09:06:12.825Z,43.25
2022-08-02T09:08:40.917Z,42.09
2022-08-02T09:11:16.727Z,42.55
2022-08-02T09:13:54.042Z,42.30
2022-08-02T09:16:38.633Z,41.43
2022-08-02T09:19:18.621Z,40.73
2022-08-02T09:21:51.654Z,41.03
2022-08-02T09:24:24.798Z,40.08
2022-08-02T09:26:54.308Z,39.65
2022-08-02T09:29:25.171Z,39.16
2022-08-02T09:32:02.953Z,38.96
2022-08-02T09:34:52.844Z,38.97
2022-08-02T09:37:29.000Z,38.07
2022-08-02T09:40:04.831Z,38.16
2022-08-02T09:42:37.396Z,37.97
2022-08-02T09:45:06.379Z,37.50
2022-08-02T09:47:37.670Z,36.92
2022-08-02T09:50:05.631Z,37.31
2022-08-02T09:52:37.386Z,37.78
2022-08-02T09:55:15.543Z,37.24
2022-08-02T09:57:44.052Z,36.91
2022-08-02T10:00:37.064Z,36.76
2022-08-02T10:03:18.387Z,36.75
2022-08-02T10:05:56.337Z,36.49
2022-08-02T10:08:33.826Z,36.61
2022-08-02T10:17:49.865Z,35.55
2022-08-02T10:21:26.305Z,36.02
2022-08-02T10:24:33.976Z,36.19
2022-08-02T10:31:14.519Z,35.86
2022-08-02T10:34:31.779Z,36.70
2022-08-02T11:00:40.985Z,35.62
2022-08-02T14:05:47.313Z,35.57
2022-08-02T15:06:59.753Z,34.58
2022-08-02T15:13:42.473Z,34.70
2022-08-02T15:16:12.544Z,34.51
2022-08-02T15:18:45.156Z,34.49
2022-08-02T15:21:36.518Z,34.62
2022-08-02T15:24:02.814Z,34.29
2022-08-02T15:26:33.837Z,34.46
2022-08-02T15:29:03.689Z,34.55
2022-08-02T15:31:33.372Z,34.52
2022-08-02T15:34:02.504Z,34.49
2022-08-02T15:36:32.251Z,35.05
2022-08-02T15:39:00.148Z,34.84
2022-08-02T15:41:29.533Z,34.73
2022-08-02T15:44:23.249Z,35.04
2022-08-02T15:46:54.522Z,34.97
2022-08-02T15:49:23.439Z,34.64
2022-08-02T15:52:22.906Z,34.39
2022-08-02T15:56:32.464Z,34.66
2022-08-02T16:03:15.516Z,35.08
2022-08-02T16:10:01.828Z,34.95
2022-08-02T16:12:32.582Z,34.86
2022-08-02T16:15:17.740Z,34.89
2022-08-02T16:17:54.101Z,35.08
2022-08-02T16:21:02.597Z,34.96
2022-08-02T16:23:59.172Z,34.90
2022-08-02T16:26:57.401Z,34.66
2022-08-02T16:29:25.230Z,34.52
2022-08-02T16:31:56.648Z,34.30
2022-08-02T16:34:24.927Z,34.99
2022-08-02T16:36:54.522Z,34.63
2022-08-02T16:39:28.204Z,34.61
2022-08-02T16:42:25.467Z,34.44
2022-08-02T16:44:54.904Z,34.56
2022-08-02T16:47:43.435Z,34.36
2022-08-02T16:50:27.109Z,34.61
2022-08-02T16:52:58.553Z,34.40
2022-08-02T16:55:30.530Z,34.76
2022-08-02T16:58:01.133Z,34.47
2022-08-02T17:00:37.450Z,34.55
2022-08-02T17:03:13.069Z,34.63
2022-08-02T17:05:56.158Z,34.67
2022-08-02T17:08:32.112Z,34.53
2022-08-02T17:11:04.528Z,34.68
2022-08-02T17:13:34.328Z,34.85
2022-08-02T17:16:26.066Z,34.37
2022-08-02T17:18:55.547Z,34.72
2022-08-02T17:21:31.629Z,34.43
2022-08-02T17:24:05.134Z,34.84
2022-08-02T17:26:37.755Z,34.73
2022-08-02T17:29:15.321Z,34.71
2022-08-02T17:32:04.873Z,34.77
2022-08-02T17:34:36.983Z,34.91
2022-08-02T17:37:07.167Z,35.03
2022-08-02T17:39:44.391Z,35.35
2022-08-02T17:42:23.359Z,35.09
2022-08-02T17:44:54.230Z,35.20
2022-08-02T17:47:23.087Z,35.49
2022-08-02T17:49:59.376Z,35.53
2022-08-02T17:52:50.422Z,35.81
2022-08-02T17:55:16.557Z,36.09
2022-08-02T17:57:57.167Z,36.33
2022-08-02T18:00:34.097Z,36.33
2022-08-02T18:03:06.017Z,36.66
2022-08-02T18:05:40.318Z,36.52
2022-08-02T18:08:24.057Z,36.88
2022-08-02T18:10:54.048Z,37.15
2022-08-02T18:13:22.246Z,37.23
2022-08-02T18:15:57.270Z,37.38
2022-08-02T18:18:29.871Z,37.64
2022-08-02T18:21:15.477Z,37.73
2022-08-02T18:23:49.357Z,37.86
2022-08-02T18:26:20.685Z,38.02
2022-08-02T18:28:49.465Z,38.22
2022-08-02T18:31:22.748Z,38.49
2022-08-02T18:33:59.674Z,38.74
2022-08-02T18:36:31.607Z,38.76
2022-08-02T18:39:08.721Z,39.02
2022-08-02T18:41:38.105Z,39.42
2022-08-02T18:44:15.855Z,39.43
2022-08-02T18:46:51.131Z,39.56
2022-08-02T18:49:46.088Z,39.68
2022-08-02T18:52:30.682Z,39.87
2022-08-02T18:56:00.059Z,40.03
2022-08-02T20:12:35.267Z,44.68
2022-08-02T20:15:56.288Z,44.88
2022-08-02T20:19:29.916Z,44.99
2022-08-02T20:29:48.862Z,45.26
2022-08-02T20:32:25.767Z,45.52
2022-08-02T20:34:57.395Z,45.74
2022-08-02T20:37:59.845Z,45.93
2022-08-02T20:40:50.739Z,46.10
2022-08-02T20:43:42.725Z,46.22
2022-08-02T20:46:52.693Z,46.50
2022-08-02T20:49:40.822Z,46.47
2022-08-02T20:52:24.200Z,46.69
2022-08-02T20:55:39.482Z,46.82
2022-08-02T21:07:03.226Z,47.50
2022-08-02T21:13:46.993Z,47.77
2022-08-02T21:19:52.785Z,47.93
2022-08-02T21:22:27.446Z,48.02
2022-08-02T21:24:58.815Z,48.23
2022-08-02T21:27:52.010Z,48.28
2022-08-02T21:30:20.125Z,48.31
2022-08-02T21:32:57.916Z,48.45
2022-08-02T21:35:29.900Z,48.51
2022-08-02T21:37:58.436Z,48.66
2022-08-02T21:40:27.079Z,48.54
2022-08-02T21:42:57.745Z,48.79
2022-08-02T21:45:31.408Z,48.71
2022-08-02T21:48:00.142Z,48.77
2022-08-02T21:50:35.100Z,49.04
2022-08-02T21:53:06.686Z,49.18
2022-08-02T21:56:00.595Z,49.53
2022-08-02T21:58:32.583Z,49.60
2022-08-02T22:01:02.509Z,49.78
2022-08-02T22:03:34.391Z,50.33
2022-08-02T22:06:08.254Z,50.34
2022-08-02T22:08:45.449Z,50.45
2022-08-02T22:11:17.532Z,50.58
2022-08-02T22:13:47.623Z,50.91
2022-08-02T22:16:18.355Z,50.88
2022-08-02T22:18:52.538Z,51.23
2022-08-02T22:21:24.541Z,50.95
2022-08-02T22:23:56.883Z,51.18
2022-08-02T22:26:33.385Z,51.21
2022-08-02T22:29:05.746Z,51.33
2022-08-02T22:31:44.041Z,51.31
2022-08-02T22:34:37.328Z,51.52
2022-08-02T22:38:14.979Z,51.55
2022-08-02T22:40:08.713Z,51.62
2022-08-02T22:43:00.187Z,51.72
2022-08-02T22:45:29.120Z,51.72
2022-08-02T22:48:10.063Z,51.73
2022-08-02T22:50:50.095Z,51.84
2022-08-02T22:53:35.283Z,51.86
2022-08-02T22:56:05.607Z,52.03
2022-08-02T23:01:29.050Z,52.25
2022-08-02T23:03:59.896Z,52.48
2022-08-02T23:06:32.706Z,52.57
2022-08-02T23:09:07.419Z,52.68
2022-08-02T23:11:35.192Z,52.75
2022-08-02T23:14:08.565Z,52.89
2022-08-02T23:16:54.769Z,52.99
2022-08-02T23:19:44.940Z,53.23
2022-08-02T23:22:20.635Z,53.37
2022-08-02T23:24:54.517Z,53.33
2022-08-02T23:27:25.917Z,53.44
2022-08-02T23:30:02.350Z,53.59
2022-08-02T23:32:33.985Z,53.67
2022-08-02T23:35:09.519Z,53.73
2022-08-02T23:37:59.632Z,53.77
2022-08-02T23:40:42.369Z,53.99
2022-08-02T23:43:18.545Z,54.07
2022-08-02T23:45:51.285Z,54.19
2022-08-02T23:48:22.962Z,54.06
2022-08-02T23:50:52.827Z,54.21
2022-08-02T23:53:21.877Z,54.23
2022-08-02T23:55:54.463Z,54.28
2022-08-02T23:58:23.184Z,54.35
